createdAt,value
2023-11-08T00:01:25.065Z,6.30
2023-11-08T00:03:52.320Z,4.22
2023-11-08T00:06:19.536Z,3.75
2023-11-08T00:08:49.772Z,4.57
2023-11-08T00:11:17.124Z,4.75
2023-11-08T00:13:45.317Z,4.57
2023-11-08T00:16:12.425Z,3.67
2023-11-08T00:18:39.587Z,3.53
2023-11-08T00:21:08.124Z,3.70
2023-11-08T00:23:35.385Z,5.32
2023-11-08T00:26:02.562Z,3.75
2023-11-08T00:28:29.674Z,3.42
2023-11-08T00:30:56.849Z,4.32
2023-11-08T00:33:25.915Z,3.53
2023-11-08T00:35:53.074Z,4.57
2023-11-08T00:38:20.151Z,3.65
2023-11-08T00:40:47.397Z,3.53
2023-11-08T00:43:15.157Z,4.65
2023-11-08T00:45:42.456Z,5.63
2023-11-08T00:48:09.774Z,4.22
2023-11-08T00:50:36.965Z,3.38
2023-11-08T00:53:05.161Z,4.65
2023-11-08T00:55:34.200Z,3.30
2023-11-08T00:58:01.438Z,3.88
2023-11-08T01:00:28.607Z,4.88
2023-11-08T01:02:55.818Z,4.45
2023-11-08T01:05:23.065Z,4.60
2023-11-08T01:07:50.196Z,3.80
2023-11-08T01:10:17.898Z,5.13
2023-11-08T01:12:46.064Z,4.18
2023-11-08T01:15:13.288Z,5.22
2023-11-08T01:17:40.847Z,5.55
2023-11-08T01:20:08.354Z,4.28
2023-11-08T01:22:35.490Z,4.85
2023-11-08T01:25:04.157Z,4.45
2023-11-08T01:27:32.251Z,5.28
2023-11-08T01:30:00.012Z,4.75
2023-11-08T01:32:27.679Z,4.75
2023-11-08T01:34:54.867Z,4.00
2023-11-08T01:37:22.008Z,4.88
2023-11-08T01:39:49.224Z,4.13
2023-11-08T01:42:19.767Z,4.53
2023-11-08T01:44:46.997Z,5.18
2023-11-08T01:47:17.089Z,3.72
2023-11-08T01:49:45.402Z,4.78
2023-11-08T01:52:13.051Z,4.43
2023-11-08T01:54:46.589Z,3.70
2023-11-08T01:57:14.120Z,3.70
2023-11-08T01:59:41.228Z,4.32
2023-11-08T02:02:08.897Z,5.10
2023-11-08T02:04:36.773Z,4.57
2023-11-08T02:07:04.215Z,4.60
2023-11-08T02:09:31.514Z,5.68
2023-11-08T02:12:01.799Z,4.30
2023-11-08T02:14:29.853Z,4.88
2023-11-08T02:16:57.720Z,6.63
2023-11-08T02:19:25.028Z,5.70
2023-11-08T02:22:12.104Z,7.53
2023-11-08T02:24:39.571Z,5.50
2023-11-08T02:27:07.190Z,5.30
2023-11-08T02:29:34.262Z,4.07
2023-11-08T02:32:01.390Z,5.85
2023-11-08T02:34:29.990Z,5.18
2023-11-08T02:36:57.143Z,7.38
2023-11-08T02:39:24.281Z,4.68
2023-11-08T02:41:51.879Z,5.10
2023-11-08T02:44:20.010Z,5.20
2023-11-08T02:46:47.149Z,5.55
2023-11-08T02:49:15.236Z,4.35
2023-11-08T02:51:44.682Z,5.25
2023-11-08T02:54:11.929Z,5.05
2023-11-08T02:56:41.464Z,5.80
2023-11-08T02:59:09.600Z,6.53
2023-11-08T03:01:38.610Z,5.13
2023-11-08T03:04:06.016Z,5.28
2023-11-08T03:06:33.635Z,5.38
2023-11-08T03:09:00.833Z,6.70
2023-11-08T03:11:27.918Z,6.72
2023-11-08T03:13:55.538Z,4.72
2023-11-08T03:16:22.663Z,4.93
2023-11-08T03:18:49.974Z,6.72
2023-11-08T03:21:17.143Z,4.97
2023-11-08T03:23:44.308Z,6.85
2023-11-08T03:26:11.657Z,5.68
2023-11-08T03:28:39.739Z,5.53
2023-11-08T03:31:08.392Z,5.13
2023-11-08T03:33:37.076Z,6.50
2023-11-08T03:36:05.412Z,8.55
2023-11-08T03:38:32.597Z,6.75
2023-11-08T03:40:59.747Z,6.45
2023-11-08T03:43:26.893Z,7.20
2023-11-08T03:45:54.204Z,5.32
2023-11-08T03:48:21.427Z,7.75
2023-11-08T03:50:48.530Z,8.20
2023-11-08T03:53:15.734Z,6.22
2023-11-08T03:55:44.196Z,6.80
2023-11-08T03:58:11.329Z,6.20
2023-11-08T04:00:38.465Z,7.45
2023-11-08T04:03:05.696Z,8.00
2023-11-08T04:05:32.841Z,8.68
2023-11-08T04:08:00.961Z,7.18
2023-11-08T04:10:28.093Z,10.55
2023-11-08T04:12:55.262Z,5.63
2023-11-08T04:15:22.475Z,6.57
2023-11-08T04:17:49.858Z,8.15
2023-11-08T04:20:17.809Z,6.28
2023-11-08T04:22:45.149Z,5.90
2023-11-08T04:25:12.892Z,7.47
2023-11-08T04:27:40.652Z,8.80
2023-11-08T04:30:08.432Z,5.95
2023-11-08T04:32:35.953Z,8.30
2023-11-08T04:35:03.258Z,8.90
2023-11-08T04:37:31.849Z,7.35
2023-11-08T04:39:59.029Z,7.90
2023-11-08T04:42:27.316Z,7.15
2023-11-08T04:44:54.404Z,8.30
2023-11-08T04:47:22.259Z,7.85
2023-11-08T04:49:51.151Z,8.13
2023-11-08T04:52:18.999Z,6.00
2023-11-08T04:54:54.096Z,6.90
2023-11-08T04:57:22.803Z,8.15
2023-11-08T04:59:50.805Z,6.47
2023-11-08T05:02:22.304Z,9.77
2023-11-08T05:04:50.917Z,8.93
2023-11-08T05:07:21.228Z,7.35
2023-11-08T05:09:50.140Z,7.47
2023-11-08T05:12:19.044Z,8.77
2023-11-08T05:14:47.214Z,7.32
2023-11-08T05:17:17.773Z,7.57
2023-11-08T05:19:45.768Z,7.75
2023-11-08T05:22:14.237Z,6.88
2023-11-08T05:24:41.493Z,5.40
2023-11-08T05:27:08.781Z,6.32
2023-11-08T05:29:36.830Z,6.07
2023-11-08T05:32:04.248Z,5.28
2023-11-08T05:34:31.458Z,6.75
2023-11-08T05:37:00.233Z,6.30
2023-11-08T05:39:28.806Z,6.72
2023-11-08T05:41:56.102Z,7.78
2023-11-08T05:44:23.369Z,6.57
2023-11-08T05:46:50.806Z,8.32
2023-11-08T05:49:18.536Z,7.85
2023-11-08T05:51:46.094Z,7.80
2023-11-08T05:54:13.333Z,6.35
2023-11-08T05:56:40.516Z,6.38
2023-11-08T05:59:07.833Z,7.28
2023-11-08T06:01:35.159Z,7.90
2023-11-08T06:04:02.875Z,6.72
2023-11-08T06:06:30.151Z,6.80
2023-11-08T06:08:57.457Z,6.55
2023-11-08T06:11:24.707Z,7.53
2023-11-08T06:13:51.863Z,7.20
2023-11-08T06:16:18.983Z,6.90
2023-11-08T06:18:46.317Z,6.40
2023-11-08T06:21:15.024Z,5.85
2023-11-08T06:23:44.658Z,6.32
2023-11-08T06:26:19.387Z,7.72
2023-11-08T06:28:47.306Z,5.95
2023-11-08T06:31:14.957Z,6.85
2023-11-08T06:33:42.433Z,6.43
2023-11-08T06:36:11.152Z,8.52
2023-11-08T06:38:38.363Z,7.22
2023-11-08T06:41:05.548Z,5.45
2023-11-08T06:43:32.902Z,7.40
2023-11-08T06:46:00.904Z,7.60
2023-11-08T06:48:28.355Z,4.85
2023-11-08T06:50:55.582Z,7.68
2023-11-08T06:55:51.418Z,6.55
2023-11-08T06:58:18.621Z,5.93
2023-11-08T07:00:45.830Z,7.32
2023-11-08T07:03:13.009Z,5.47
2023-11-08T07:05:40.184Z,7.40
2023-11-08T07:08:09.492Z,6.97
2023-11-08T07:10:37.198Z,6.78
2023-11-08T07:13:04.543Z,8.18
2023-11-08T07:15:32.126Z,4.95
2023-11-08T07:17:59.431Z,5.85
2023-11-08T07:20:26.642Z,8.23
2023-11-08T07:22:53.815Z,5.38
2023-11-08T07:25:20.894Z,5.38
2023-11-08T07:27:48.122Z,8.13
2023-11-08T07:30:18.095Z,7.78
2023-11-08T07:32:49.279Z,7.18
2023-11-08T07:35:16.533Z,6.90
2023-11-08T07:37:43.620Z,7.25
2023-11-08T07:40:14.196Z,6.10
2023-11-08T07:42:42.005Z,6.00
2023-11-08T07:45:10.527Z,8.60
2023-11-08T07:47:37.692Z,9.57
2023-11-08T07:50:07.520Z,5.70
2023-11-08T07:52:34.881Z,8.50
2023-11-08T07:55:02.297Z,6.75
2023-11-08T07:57:31.318Z,10.10
2023-11-08T07:59:58.453Z,6.43
2023-11-08T08:02:25.649Z,6.15
2023-11-08T08:04:55.430Z,6.75
2023-11-08T08:07:22.540Z,5.45
2023-11-08T08:09:49.675Z,6.47
2023-11-08T08:12:16.825Z,7.90
2023-11-08T08:14:45.201Z,6.55
2023-11-08T08:17:14.026Z,8.60
2023-11-08T08:19:42.185Z,7.35
2023-11-08T08:22:09.934Z,8.40
2023-11-08T08:24:37.188Z,6.53
2023-11-08T08:27:04.792Z,7.60
2023-11-08T08:29:32.112Z,8.10
2023-11-08T08:31:59.455Z,6.70
2023-11-08T08:34:31.323Z,7.80
2023-11-08T08:36:59.674Z,6.82
2023-11-08T08:39:29.645Z,6.60
2023-11-08T08:41:58.412Z,7.35
2023-11-08T08:44:26.311Z,7.13
2023-11-08T08:46:53.715Z,8.40
2023-11-08T08:49:23.018Z,8.32
2023-11-08T08:51:51.209Z,7.43
2023-11-08T08:54:22.695Z,6.22
2023-11-08T08:56:50.436Z,6.05
2023-11-08T08:59:17.845Z,8.68
2023-11-08T09:01:45.124Z,6.47
2023-11-08T09:04:13.252Z,10.23
2023-11-08T09:06:40.685Z,11.07
2023-11-08T09:09:13.615Z,8.35
2023-11-08T09:11:43.850Z,7.38
2023-11-08T09:14:11.101Z,8.55
2023-11-08T09:16:39.974Z,8.07
2023-11-08T09:19:09.878Z,7.35
2023-11-08T09:21:38.117Z,8.70
2023-11-08T09:24:08.076Z,7.32
2023-11-08T09:26:36.511Z,7.57
2023-11-08T09:29:04.467Z,6.50
2023-11-08T09:31:31.734Z,7.28
2023-11-08T09:33:58.965Z,5.50
2023-11-08T09:36:28.917Z,6.03
2023-11-08T09:38:56.590Z,6.90
2023-11-08T09:41:25.416Z,7.25
2023-11-08T09:43:53.826Z,9.43
2023-11-08T09:46:22.276Z,10.07
2023-11-08T09:48:55.770Z,5.57
2023-11-08T09:51:23.116Z,6.68
2023-11-08T09:53:51.270Z,7.57
2023-11-08T09:56:18.454Z,6.97
2023-11-08T09:58:49.370Z,6.80
2023-11-08T10:01:18.213Z,5.95
2023-11-08T10:03:46.981Z,5.63
2023-11-08T10:06:14.744Z,5.53
2023-11-08T10:08:42.132Z,5.20
2023-11-08T10:11:11.407Z,6.70
2023-11-08T10:13:56.752Z,7.20
2023-11-08T10:16:24.757Z,8.73
2023-11-08T10:19:36.530Z,4.85
2023-11-08T10:21:52.523Z,5.63
2023-11-08T10:24:19.881Z,8.05
2023-11-08T10:26:48.021Z,5.32
2023-11-08T10:29:15.390Z,6.72
2023-11-08T10:31:44.875Z,5.68
2023-11-08T10:34:14.457Z,6.93
2023-11-08T10:36:42.251Z,6.65
2023-11-08T10:39:21.120Z,6.75
2023-11-08T10:41:51.462Z,8.57
2023-11-08T10:44:25.989Z,5.43
2023-11-08T10:47:00.677Z,6.55
2023-11-08T10:49:27.979Z,4.60
2023-11-08T10:51:55.412Z,7.88
2023-11-08T10:54:22.903Z,4.82
2023-11-08T10:56:51.576Z,6.93
2023-11-08T10:59:19.403Z,5.43
2023-11-08T11:01:48.405Z,6.18
2023-11-08T11:04:21.003Z,5.68
2023-11-08T11:06:49.986Z,8.23
2023-11-08T11:09:18.436Z,5.13
2023-11-08T11:11:54.252Z,6.22
2023-11-08T11:14:35.040Z,5.85
2023-11-08T11:17:19.906Z,7.15
2023-11-08T11:19:50.824Z,6.30
2023-11-08T11:22:21.485Z,6.70
2023-11-08T11:24:49.945Z,4.97
2023-11-08T11:27:36.298Z,5.32
2023-11-08T11:30:16.159Z,8.93
2023-11-08T11:32:48.836Z,5.95
2023-11-08T11:35:50.692Z,4.82
2023-11-08T11:38:25.326Z,5.05
2023-11-08T11:41:30.925Z,7.45
2023-11-08T11:43:59.500Z,5.85
2023-11-08T11:46:28.473Z,7.20
2023-11-08T11:49:12.635Z,7.57
2023-11-08T11:51:44.225Z,6.25
2023-11-08T11:54:13.927Z,8.43
2023-11-08T11:56:42.530Z,8.15
2023-11-08T11:59:10.280Z,5.68
2023-11-08T12:01:37.488Z,5.53
2023-11-08T12:04:04.954Z,6.32
2023-11-08T12:06:33.423Z,9.65
2023-11-08T12:09:00.684Z,6.47
2023-11-08T12:11:27.797Z,5.03
2023-11-08T12:13:55.882Z,6.18
2023-11-08T12:16:23.666Z,7.95
2023-11-08T12:18:52.940Z,5.72
2023-11-08T12:21:21.014Z,6.10
2023-11-08T12:23:50.523Z,5.88
2023-11-08T12:26:18.114Z,7.03
2023-11-08T12:28:47.046Z,6.40
2023-11-08T12:31:19.496Z,6.20
2023-11-08T12:33:47.224Z,8.38
2023-11-08T12:36:14.668Z,6.82
2023-11-08T12:38:41.909Z,9.82
2023-11-08T12:41:09.606Z,6.63
2023-11-08T12:43:58.984Z,6.07
2023-11-08T12:46:37.856Z,6.15
2023-11-08T12:49:21.286Z,5.22
2023-11-08T12:51:48.560Z,7.35
2023-11-08T12:54:18.315Z,6.82
2023-11-08T12:56:47.436Z,6.75
2023-11-08T12:59:22.242Z,5.82
2023-11-08T13:01:51.516Z,5.15
2023-11-08T13:04:22.543Z,7.70
2023-11-08T13:06:50.707Z,7.32
2023-11-08T13:09:17.983Z,8.90
2023-11-08T13:11:45.108Z,10.23
2023-11-08T13:14:12.372Z,8.40
2023-11-08T13:16:40.512Z,4.95
2023-11-08T13:19:07.836Z,5.72
2023-11-08T13:21:35.113Z,7.88
2023-11-08T13:24:07.164Z,5.85
2023-11-08T13:26:36.477Z,7.22
2023-11-08T13:29:04.911Z,7.65
2023-11-08T13:31:32.275Z,4.57
2023-11-08T13:34:00.291Z,7.25
2023-11-08T13:36:29.073Z,6.88
2023-11-08T13:38:57.712Z,9.05
2023-11-08T13:41:26.243Z,7.07
2023-11-08T13:43:53.514Z,7.65
2023-11-08T13:46:20.745Z,11.32
2023-11-08T13:48:48.007Z,5.90
2023-11-08T13:51:15.376Z,6.95
2023-11-08T13:53:42.708Z,9.27
2023-11-08T13:56:10.217Z,8.57
2023-11-08T13:58:37.558Z,8.15
2023-11-08T14:01:11.835Z,7.15
2023-11-08T14:03:40.412Z,8.05
2023-11-08T14:06:09.094Z,8.35
2023-11-08T14:08:38.840Z,6.78
2023-11-08T14:11:06.549Z,7.97
2023-11-08T14:13:33.939Z,8.05
2023-11-08T14:16:01.346Z,8.75
2023-11-08T14:18:28.546Z,8.38
2023-11-08T14:20:57.786Z,10.68
2023-11-08T14:23:25.366Z,7.93
2023-11-08T14:25:54.927Z,9.02
2023-11-08T14:28:22.466Z,8.40
2023-11-08T14:30:51.577Z,9.27
2023-11-08T14:33:19.067Z,10.18
2023-11-08T14:35:46.431Z,7.90
2023-11-08T14:38:13.940Z,9.90
2023-11-08T14:40:42.056Z,6.95
2023-11-08T14:43:10.991Z,8.13
2023-11-08T14:45:38.390Z,6.70
2023-11-08T14:48:06.443Z,5.55
2023-11-08T14:50:34.995Z,5.47
2023-11-08T14:53:02.488Z,6.55
2023-11-08T14:55:29.690Z,8.02
2023-11-08T14:57:56.832Z,7.85
2023-11-08T15:00:25.216Z,7.70
2023-11-08T15:02:53.837Z,8.07
2023-11-08T15:05:21.504Z,7.80
2023-11-08T15:09:47.049Z,9.20
2023-11-08T15:10:38.149Z,6.95
2023-11-08T15:13:05.454Z,7.00
2023-11-08T15:15:32.617Z,6.43
2023-11-08T15:17:59.781Z,6.72
2023-11-08T15:20:27.059Z,12.38
2023-11-08T15:22:54.825Z,10.32
2023-11-08T15:25:22.076Z,6.75
2023-11-08T15:27:49.665Z,8.07
2023-11-08T15:30:16.981Z,7.60
2023-11-08T15:32:45.362Z,7.43
2023-11-08T15:35:13.409Z,6.28
2023-11-08T15:37:41.029Z,8.02
2023-11-08T15:40:09.031Z,7.45
2023-11-08T15:42:36.327Z,8.57
2023-11-08T15:45:04.017Z,7.35
2023-11-08T15:47:32.660Z,7.25
2023-11-08T15:49:59.791Z,6.72
2023-11-08T15:52:26.940Z,7.40
2023-11-08T15:54:54.112Z,7.20
2023-11-08T15:57:22.917Z,8.90
2023-11-08T15:59:50.102Z,9.10
2023-11-08T16:02:17.961Z,11.05
2023-11-08T16:04:45.263Z,7.45
2023-11-08T16:07:13.578Z,7.50
2023-11-08T16:09:42.192Z,7.32
2023-11-08T16:12:10.319Z,9.35
2023-11-08T16:14:38.018Z,9.65
2023-11-08T16:17:08.446Z,9.20
2023-11-08T16:19:35.985Z,7.40
2023-11-08T16:22:03.639Z,9.98
2023-11-08T16:24:30.868Z,7.65
2023-11-08T16:26:58.013Z,10.18
2023-11-08T16:29:50.576Z,6.55
2023-11-08T16:32:34.772Z,9.23
2023-11-08T16:35:01.165Z,10.02
2023-11-08T16:37:32.046Z,11.82
2023-11-08T16:39:59.451Z,8.80
2023-11-08T16:42:27.219Z,8.75
2023-11-08T16:44:54.429Z,9.77
2023-11-08T16:47:21.701Z,9.38
2023-11-08T16:49:52.056Z,7.47
2023-11-08T16:52:20.535Z,8.50
2023-11-08T16:54:47.695Z,10.50
2023-11-08T16:57:14.890Z,9.07
2023-11-08T16:59:42.914Z,10.30
2023-11-08T17:02:10.200Z,6.55
2023-11-08T17:04:40.863Z,9.38
2023-11-08T17:07:08.502Z,8.75
2023-11-08T17:09:39.503Z,7.05
2023-11-08T17:12:10.006Z,8.23
2023-11-08T17:14:37.762Z,8.82
2023-11-08T17:17:05.115Z,7.22
2023-11-08T17:19:32.324Z,9.48
2023-11-08T17:21:59.569Z,8.23
2023-11-08T17:24:27.075Z,7.93
2023-11-08T17:26:54.315Z,9.93
2023-11-08T17:29:21.463Z,8.35
2023-11-08T17:31:52.096Z,7.72
2023-11-08T17:34:19.583Z,9.40
2023-11-08T17:36:47.189Z,9.75
2023-11-08T17:39:14.503Z,8.27
2023-11-08T17:41:41.658Z,12.13
2023-11-08T17:44:08.948Z,12.65
2023-11-08T17:46:36.566Z,7.88
2023-11-08T17:49:05.224Z,8.93
2023-11-08T17:51:32.466Z,7.90
2023-11-08T17:54:00.840Z,9.13
2023-11-08T17:56:28.073Z,8.20
2023-11-08T17:58:55.264Z,8.65
2023-11-08T18:01:23.580Z,11.10
2023-11-08T18:03:51.148Z,10.18
2023-11-08T18:06:18.632Z,9.73
2023-11-08T18:08:46.730Z,12.80
2023-11-08T18:11:15.380Z,10.65
2023-11-08T18:13:47.245Z,8.98
2023-11-08T18:16:14.433Z,10.07
2023-11-08T18:18:43.024Z,10.75
2023-11-08T18:21:10.267Z,11.30
2023-11-08T18:23:37.563Z,10.65
2023-11-08T18:26:05.037Z,9.52
2023-11-08T18:28:32.198Z,12.70
2023-11-08T18:30:59.321Z,8.70
2023-11-08T18:33:27.631Z,11.13
2023-11-08T18:35:54.855Z,8.27
2023-11-08T18:38:23.587Z,8.10
2023-11-08T18:40:52.549Z,9.75
2023-11-08T18:43:25.653Z,7.45
2023-11-08T18:45:56.618Z,7.95
2023-11-08T18:48:27.556Z,10.30
2023-11-08T18:50:56.304Z,7.95
2023-11-08T18:53:25.149Z,9.35
2023-11-08T18:55:52.558Z,10.18
2023-11-08T18:58:24.103Z,8.52
2023-11-08T19:00:54.268Z,9.80
2023-11-08T19:03:21.554Z,13.05
2023-11-08T19:05:48.830Z,8.73
2023-11-08T19:08:16.828Z,10.13
2023-11-08T19:10:44.065Z,8.60
2023-11-08T19:13:11.273Z,10.55
2023-11-08T19:15:38.349Z,9.60
2023-11-08T19:18:07.059Z,8.68
2023-11-08T19:20:34.521Z,8.18
2023-11-08T19:23:08.278Z,8.40
2023-11-08T19:25:43.492Z,7.57
2023-11-08T19:28:13.542Z,10.32
2023-11-08T19:30:41.225Z,7.90
2023-11-08T19:33:08.490Z,6.53
2023-11-08T19:35:35.699Z,7.07
2023-11-08T19:38:02.855Z,8.77
2023-11-08T19:40:30.798Z,8.93
2023-11-08T19:42:57.944Z,9.85
2023-11-08T19:45:25.090Z,9.60
2023-11-08T19:47:52.241Z,9.85
2023-11-08T19:50:19.558Z,7.38
2023-11-08T19:52:47.488Z,8.40
2023-11-08T19:55:14.784Z,8.73
2023-11-08T19:57:43.581Z,7.45
2023-11-08T20:00:13.630Z,8.65
2023-11-08T20:02:41.369Z,8.73
2023-11-08T20:05:09.293Z,8.25
2023-11-08T20:07:36.568Z,7.40
2023-11-08T20:10:04.609Z,9.00
2023-11-08T20:12:31.889Z,9.38
2023-11-08T20:14:59.039Z,8.13
2023-11-08T20:17:26.783Z,7.93
2023-11-08T20:19:57.897Z,7.78
2023-11-08T20:22:25.144Z,7.97
2023-11-08T20:24:53.357Z,10.23
2023-11-08T20:27:21.408Z,8.43
2023-11-08T20:29:49.441Z,10.13
2023-11-08T20:32:18.180Z,8.60
2023-11-08T20:34:45.942Z,8.10
2023-11-08T20:37:14.553Z,8.38
2023-11-08T20:39:41.835Z,6.35
2023-11-08T20:42:09.012Z,6.97
2023-11-08T20:44:36.347Z,9.98
2023-11-08T20:47:03.617Z,8.00
2023-11-08T20:49:30.977Z,8.60
2023-11-08T20:51:58.407Z,7.55
2023-11-08T20:54:27.308Z,8.73
2023-11-08T20:56:54.651Z,9.57
2023-11-08T20:59:21.825Z,8.40
2023-11-08T21:01:49.418Z,8.48
2023-11-08T21:04:17.319Z,10.38
2023-11-08T21:06:46.942Z,8.63
2023-11-08T21:09:14.120Z,6.55
2023-11-08T21:11:41.203Z,9.80
2023-11-08T21:14:08.342Z,7.90
2023-11-08T21:16:35.373Z,8.43
2023-11-08T21:19:04.652Z,7.60
2023-11-08T21:21:32.386Z,9.07
2023-11-08T21:23:59.805Z,11.05
2023-11-08T21:26:27.162Z,7.22
2023-11-08T21:28:55.915Z,10.48
2023-11-08T21:31:23.414Z,9.88
2023-11-08T21:33:50.609Z,10.40
2023-11-08T21:36:17.818Z,8.63
2023-11-08T21:38:46.316Z,10.25
2023-11-08T21:41:13.574Z,7.47
2023-11-08T21:43:42.127Z,8.70
2023-11-08T21:46:10.117Z,9.20
2023-11-08T21:48:37.447Z,9.82
2023-11-08T21:51:04.773Z,9.57
2023-11-08T21:53:33.293Z,9.43
2023-11-08T21:56:01.213Z,7.05
2023-11-08T21:58:28.558Z,12.77
2023-11-08T22:00:56.155Z,12.20
2023-11-08T22:03:24.068Z,7.22
2023-11-08T22:05:51.835Z,7.70
2023-11-08T22:08:20.147Z,8.60
2023-11-08T22:10:48.002Z,7.22
2023-11-08T22:13:15.868Z,9.00
2023-11-08T22:15:43.223Z,10.25
2023-11-08T22:18:10.696Z,10.00
2023-11-08T22:20:37.813Z,9.63
2023-11-08T22:23:05.871Z,8.82
2023-11-08T22:25:33.584Z,8.32
2023-11-08T22:28:01.502Z,11.13
2023-11-08T22:30:28.666Z,7.43
2023-11-08T22:32:55.859Z,7.20
2023-11-08T22:35:23.084Z,10.10
2023-11-08T22:37:50.238Z,10.45
2023-11-08T22:40:18.252Z,7.75
2023-11-08T22:42:45.728Z,10.02
2023-11-08T22:45:12.889Z,10.20
2023-11-08T22:47:43.137Z,9.48
2023-11-08T22:50:12.121Z,9.18
2023-11-08T22:52:40.036Z,13.40
2023-11-08T22:55:10.313Z,9.77
2023-11-08T22:57:37.429Z,10.05
2023-11-08T23:00:15.682Z,10.07
2023-11-08T23:02:43.622Z,8.18
2023-11-08T23:05:11.322Z,7.32
2023-11-08T23:07:38.938Z,8.50
2023-11-08T23:10:06.718Z,9.93
2023-11-08T23:12:33.862Z,6.97
2023-11-08T23:15:07.571Z,6.50
2023-11-08T23:17:45.888Z,8.25
2023-11-08T23:20:15.854Z,8.50
2023-11-08T23:22:44.728Z,9.80
2023-11-08T23:25:12.014Z,8.73
2023-11-08T23:27:39.998Z,8.00
2023-11-08T23:30:07.782Z,9.05
2023-11-08T23:32:35.629Z,9.70
2023-11-08T23:35:02.866Z,10.77
2023-11-08T23:37:31.581Z,9.18
2023-11-08T23:39:59.592Z,8.90
2023-11-08T23:42:26.819Z,8.23
2023-11-08T23:44:53.999Z,6.50
2023-11-08T23:47:21.419Z,7.55
2023-11-08T23:49:48.540Z,8.05
2023-11-08T23:52:15.739Z,8.40
2023-11-08T23:54:43.293Z,8.77
2023-11-08T23:57:11.675Z,7.10
2023-11-08T23:59:39.189Z,9.40
